CDT,Max TemperatureF,Mean TemperatureF,Min TemperatureF,Max Dew PointF,MeanDew PointF,Min DewpointF,Max Humidity, Mean Humidity, Min Humidity, Max Sea Level PressureIn, Mean Sea Level PressureIn, Min Sea Level PressureIn, Max VisibilityMiles, Mean VisibilityMiles, Min VisibilityMiles, Max Wind SpeedMPH, Mean Wind SpeedMPH, Max Gust SpeedMPH,PrecipitationIn, CloudCover, Events, WindDirDegrees
2013-9-1,72,64,54,67,60,54,97,81,68,30.03,29.91,29.79,10,10,10,16,9,23,0.03,4,Rain,301
2013-9-2,66,56,46,55,51,46,100,84,60,30.13,30.08,30.03,10,10,10,8,3,,0.00,2,,332
2013-9-3,77,58,40,64,54,40,100,83,54,30.11,30.06,30.02,10,8,0,7,1,,0.00,0,Fog,189
2013-9-4,85,70,54,69,63,54,99,79,54,30.17,30.10,30.03,10,10,4,9,1,,0.00,0,,66
2013-9-5,86,74,62,70,64,57,95,76,58,30.22,30.17,30.10,10,10,10,12,6,16,0.00,1,,99
2013-9-6,90,80,70,72,69,67,98,75,49,30.11,29.98,29.88,10,10,7,14,5,23,0.00,2,Rain,168
2013-9-7,92,77,63,72,69,64,100,74,42,30.02,29.94,29.89,10,8,0,15,4,18,0.00,0,Fog,48
2013-9-8,75,69,63,68,63,60,91,82,73,30.05,29.99,29.89,10,10,10,14,9,18,0.00,6,Rain,81
2013-9-9,93,80,67,74,70,66,99,81,46,29.89,29.75,29.65,10,8,2,15,7,22,0.05,4,Rain,178
2013-9-10,83,72,61,68,65,60,98,81,47,30.02,29.93,29.82,10,10,10,14,5,17,0.01,3,Rain,257
2013-9-11,83,69,55,63,57,51,100,69,34,30.12,30.05,30.02,10,10,7,15,4,22,0.00,0,,292
2013-9-12,75,62,48,55,49,46,96,66,35,30.26,30.21,30.12,10,10,10,17,6,24,0.00,1,,331
2013-9-13,70,55,40,49,45,39,99,70,39,30.30,30.21,30.09,10,10,10,7,2,,0.00,0,,120
2013-9-14,70,59,48,58,51,44,99,80,49,30.09,29.99,29.89,10,9,3,13,5,16,0.38,4,Rain,156
2013-9-15,68,58,48,57,55,48,100,86,60,30.33,30.11,29.88,10,10,4,16,7,21,0.31,6,Rain,14
2013-9-16,67,52,38,51,46,38,100,82,54,30.41,30.34,30.24,10,9,0,10,4,,0.00,1,Fog,113
2013-9-17,61,53,45,59,52,45,100,90,75,30.24,30.10,29.94,10,9,2,16,6,21,0.00,7,Rain,138
2013-9-18,82,70,59,72,67,59,100,91,69,29.93,29.77,29.68,10,5,1,12,6,18,0.02,5,Rain,146
2013-9-19,75,67,59,70,65,53,100,88,71,29.87,29.75,29.66,10,9,1,17,5,46,1.12,3,Rain,258
2013-9-20,64,54,45,55,51,44,99,82,60,29.97,29.91,29.85,10,10,4,18,10,25,0.00,6,Rain,283
2013-9-21,65,52,40,48,45,40,100,79,52,30.02,29.97,29.92,10,9,0,9,3,,0.00,0,Fog,331
2013-9-22,78,62,45,57,51,45,95,73,47,29.95,29.89,29.81,10,10,10,18,9,24,0.00,0,,122
2013-9-23,75,64,52,54,52,50,91,70,44,29.92,29.88,29.84,10,10,10,17,9,25,0.00,0,,136
2013-9-24,72,60,48,58,52,48,99,82,56,29.97,29.94,29.92,10,10,1,8,3,,0.00,1,,114
2013-9-25,76,61,47,55,52,48,100,75,44,29.98,29.92,29.85,10,8,1,13,4,20,0.00,0,,124
2013-9-26,82,68,55,61,57,52,89,71,47,29.90,29.85,29.79,10,10,10,21,10,30,0.00,0,,129
2013-9-27,85,75,65,65,62,61,92,70,44,29.89,29.83,29.77,10,10,7,18,9,29,0.13,2,Rain,142
2013-9-28,71,58,45,64,53,43,97,79,56,29.95,29.79,29.63,10,9,3,21,10,29,0.16,5,Rain,205
2013-9-29,78,59,40,48,44,39,95,61,30,29.96,29.88,29.77,10,10,10,14,4,22,0.00,0,,177
2013-9-30,80,67,54,53,49,46,77,56,35,29.76,29.65,29.59,10,10,10,14,8,22,0.00,0,,174